This is the latest recevied weather packets stored in our database for station/object HK4CL-10. If no packets are shown the sender has not sent any weather packets the latest 10 day(s).
| Time | Temp. | Humidity | Pressure | Rain* | Wind** | Luminosity | Snow |
|---|---|---|---|---|---|---|---|
| 1787662062 | 19.44° C | 80% | 821.2 hPa | - | - | - | - |
| 1787661162 | 19.44° C | 81% | 821.2 hPa | - | - | - | - |
| 1787660262 | 19.44° C | 85% | 821 hPa | - | - | - | - |
| 1787659362 | 18.89° C | 88% | 821 hPa | - | - | - | - |
| 1787658461 | 17.78° C | 92% | 820.9 hPa | - | - | - | - |
| 1787657561 | 17.78° C | 93% | 820.7 hPa | - | - | - | - |
| 1787656661 | 17.78° C | 93% | 820.5 hPa | - | - | - | - |
| 1787655760 | 17.22° C | 92% | 820.3 hPa | - | - | - | - |
| 1787654860 | 17.22° C | 91% | 820.2 hPa | - | - | - | - |
| 1787653959 | 16.67° C | 94% | 819.7 hPa | - | - | - | - |
| 1787653059 | 16.11° C | 100% | 819.4 hPa | - | - | - | - |
| 1787652159 | 16.67° C | 96% | 819.1 hPa | - | - | - | - |
| 1787651259 | 17.22° C | 95% | 819.1 hPa | - | - | - | - |
| 1787650358 | 17.22° C | 98% | 819.1 hPa | - | - | - | - |
| 1787649458 | 17.22° C | 96% | 819.2 hPa | - | - | - | - |
| 1787648558 | 17.22° C | 96% | 819.4 hPa | - | - | - | - |
| 1787647657 | 17.78° C | 94% | 819.5 hPa | - | - | - | - |
| 1787646756 | 17.78° C | 92% | 819.6 hPa | - | - | - | - |
| 1787645855 | 17.78° C | 92% | 819.7 hPa | - | - | - | - |
| 1787644963 | 17.78° C | 93% | 820 hPa | - | - | - | - |
| 1787644063 | 18.33° C | 91% | 820.1 hPa | - | - | - | - |
| 1787643163 | 17.78° C | 90% | 820.2 hPa | - | - | - | - |
| 1787642263 | 17.22° C | 94% | 820 hPa | - | - | - | - |
| 1787641362 | 16.67° C | 97% | 820.1 hPa | - | - | - | - |
| 1787640462 | 16.67° C | 98% | 819.8 hPa | - | - | - | - |
* Rain since midnight (hover to see other rain measurements)
** Current wind speed in m/s (hover to see current wind gust speed)